createdAt,value
2023-01-02T00:00:48.712Z,57.76
2023-01-02T00:01:48.709Z,58.37
2023-01-02T00:02:48.781Z,58.27
2023-01-02T00:03:48.733Z,57.74
2023-01-02T00:04:48.664Z,57.87
2023-01-02T00:05:48.641Z,57.87
2023-01-02T00:06:48.637Z,58.37
2023-01-02T00:07:48.650Z,58.04
2023-01-02T00:08:48.647Z,57.97
2023-01-02T00:09:48.594Z,57.74
2023-01-02T00:10:52.731Z,58.27
2023-01-02T00:11:48.575Z,58.07
2023-01-02T00:12:48.634Z,58.27
2023-01-02T00:13:48.568Z,58.27
2023-01-02T00:14:48.540Z,58.37
2023-01-02T00:15:48.583Z,58.27
2023-01-02T00:16:48.531Z,58.37
2023-01-02T00:17:48.519Z,58.04
2023-01-02T00:18:48.520Z,58.37
2023-01-02T00:19:48.513Z,58.17
2023-01-02T00:20:49.473Z,58.37
2023-01-02T00:21:49.507Z,57.97
2023-01-02T00:22:48.488Z,58.47
2023-01-02T00:23:48.454Z,58.17
2023-01-02T00:24:48.488Z,58.27
2023-01-02T00:25:48.444Z,58.27
2023-01-02T00:26:48.447Z,58.27
2023-01-02T00:27:48.431Z,58.17
2023-01-02T00:28:48.455Z,57.87
2023-01-02T00:29:48.393Z,58.34
2023-01-02T00:30:48.406Z,57.76
2023-01-02T00:31:49.456Z,58.07
2023-01-02T00:32:49.388Z,57.76
2023-01-02T00:33:48.347Z,58.07
2023-01-02T00:34:48.318Z,57.87
2023-01-02T00:35:48.360Z,58.07
2023-01-02T00:36:48.295Z,57.74
2023-01-02T00:37:48.315Z,58.27
2023-01-02T00:38:48.275Z,57.97
2023-01-02T00:39:48.291Z,58.07
2023-01-02T00:40:48.301Z,57.76
2023-01-02T00:41:48.244Z,58.47
2023-01-02T00:42:48.248Z,57.87
2023-01-02T00:43:48.246Z,58.27
2023-01-02T00:44:48.232Z,58.37
2023-01-02T00:45:48.239Z,58.37
2023-01-02T00:46:48.284Z,57.97
2023-01-02T00:47:49.189Z,58.07
2023-01-02T00:48:48.164Z,57.97
2023-01-02T00:49:48.142Z,57.97
2023-01-02T00:50:48.150Z,57.56
2023-01-02T00:51:49.145Z,57.67
2023-01-02T00:52:48.114Z,57.76
2023-01-02T00:53:49.159Z,57.67
2023-01-02T00:54:48.124Z,58.47
2023-01-02T00:55:48.126Z,57.97
2023-01-02T00:56:48.109Z,57.56
2023-01-02T00:57:48.135Z,57.26
2023-01-02T00:58:48.056Z,57.16
2023-01-02T00:59:48.107Z,57.36
2023-01-02T01:00:49.109Z,57.16
2023-01-02T01:01:48.208Z,57.56
2023-01-02T01:02:48.253Z,57.46
2023-01-02T01:03:49.005Z,57.06
2023-01-02T01:04:47.996Z,56.85
2023-01-02T01:05:48.044Z,56.63
2023-01-02T01:06:47.981Z,56.32
2023-01-02T01:07:47.961Z,56.73
2023-01-02T01:08:47.969Z,56.83
2023-01-02T01:09:47.941Z,56.56
2023-01-02T01:10:47.943Z,56.73
2023-01-02T01:11:47.942Z,56.52
2023-01-02T01:12:47.925Z,56.12
2023-01-02T01:13:47.895Z,56.02
2023-01-02T01:14:47.883Z,56.02
2023-01-02T01:15:48.853Z,55.82
2023-01-02T01:16:48.895Z,56.12
2023-01-02T01:17:47.923Z,56.12
2023-01-02T01:18:47.852Z,55.82
2023-01-02T01:19:47.826Z,55.79
2023-01-02T01:20:47.830Z,55.09
2023-01-02T01:21:47.801Z,55.21
2023-01-02T01:22:47.792Z,55.21
2023-01-02T01:23:48.822Z,55.62
2023-01-02T01:24:47.773Z,55.01
2023-01-02T01:25:47.761Z,55.21
2023-01-02T01:26:47.779Z,54.38
2023-01-02T01:27:47.742Z,55.29
2023-01-02T01:28:47.771Z,55.01
2023-01-02T01:29:47.751Z,54.91
2023-01-02T01:30:48.688Z,55.90
2023-01-02T01:31:47.848Z,54.58
2023-01-02T01:32:47.740Z,54.79
2023-01-02T01:33:47.716Z,55.01
2023-01-02T01:34:47.683Z,54.79
2023-01-02T01:35:47.701Z,54.79
2023-01-02T01:36:47.679Z,54.99
2023-01-02T01:37:47.643Z,54.89
2023-01-02T01:38:47.616Z,54.79
2023-01-02T01:39:47.620Z,54.68
2023-01-02T01:40:47.599Z,54.58
2023-01-02T01:41:47.627Z,54.89
2023-01-02T01:42:50.388Z,54.38
2023-01-02T01:43:47.587Z,54.89
2023-01-02T01:44:47.547Z,54.48
2023-01-02T01:45:47.611Z,55.19
2023-01-02T01:46:47.579Z,54.68
2023-01-02T01:47:48.521Z,54.38
2023-01-02T01:48:47.531Z,54.58
2023-01-02T01:49:47.504Z,54.38
2023-01-02T01:50:48.476Z,54.48
2023-01-02T01:51:47.497Z,54.68
2023-01-02T01:52:48.463Z,54.38
2023-01-02T01:53:47.454Z,54.28
2023-01-02T01:54:48.437Z,54.38
2023-01-02T01:55:47.450Z,54.58
2023-01-02T01:56:47.460Z,54.58
2023-01-02T01:57:47.414Z,54.48
2023-01-02T01:58:47.444Z,54.48
2023-01-02T01:59:47.398Z,54.66
2023-01-02T02:00:47.455Z,54.48
2023-01-02T02:01:47.601Z,54.68
2023-01-02T02:02:47.579Z,54.18
2023-01-02T02:03:47.340Z,54.58
2023-01-02T02:04:47.477Z,54.38
2023-01-02T02:05:47.333Z,54.28
2023-01-02T02:06:47.330Z,54.38
2023-01-02T02:07:48.312Z,54.38
2023-01-02T02:08:47.286Z,54.38
2023-01-02T02:09:47.297Z,54.58
2023-01-02T02:10:47.273Z,54.68
2023-01-02T02:11:47.295Z,54.38
2023-01-02T02:12:47.270Z,54.28
2023-01-02T02:13:47.263Z,54.68
2023-01-02T02:14:47.248Z,54.48
2023-01-02T02:15:47.638Z,54.48
2023-01-02T02:16:48.225Z,54.58
2023-01-02T02:17:47.196Z,54.48
2023-01-02T02:18:47.202Z,54.31
2023-01-02T02:19:47.206Z,54.48
2023-01-02T02:20:47.181Z,54.41
2023-01-02T02:21:47.163Z,54.68
2023-01-02T02:22:47.152Z,54.41
2023-01-02T02:23:47.159Z,54.48
2023-01-02T02:24:47.144Z,54.38
2023-01-02T02:25:47.124Z,54.38
2023-01-02T02:26:47.102Z,54.71
2023-01-02T02:27:47.101Z,54.61
2023-01-02T02:28:47.062Z,54.38
2023-01-02T02:29:47.084Z,54.38
2023-01-02T02:30:47.054Z,54.48
2023-01-02T02:31:47.131Z,54.58
2023-01-02T02:32:47.083Z,54.18
2023-01-02T02:33:47.095Z,54.51
2023-01-02T02:34:46.998Z,54.51
2023-01-02T02:35:48.010Z,54.38
2023-01-02T02:36:48.025Z,54.48
2023-01-02T02:37:47.014Z,53.98
2023-01-02T02:38:46.969Z,54.48
2023-01-02T02:39:46.975Z,54.48
2023-01-02T02:40:46.999Z,54.38
2023-01-02T02:41:46.941Z,54.28
2023-01-02T02:42:47.971Z,54.21
2023-01-02T02:43:47.971Z,54.28
2023-01-02T02:44:46.891Z,54.18
2023-01-02T02:45:46.927Z,54.18
2023-01-02T02:46:46.892Z,54.28
2023-01-02T02:47:46.870Z,54.68
2023-01-02T02:48:47.049Z,54.68
2023-01-02T02:49:46.898Z,54.08
2023-01-02T02:50:47.841Z,54.18
2023-01-02T02:51:47.839Z,54.18
2023-01-02T02:52:46.819Z,54.18
2023-01-02T02:53:46.818Z,54.18
2023-01-02T02:54:46.823Z,54.48
2023-01-02T02:55:46.786Z,54.48
2023-01-02T02:56:46.765Z,54.18
2023-01-02T02:57:46.779Z,54.10
2023-01-02T02:58:46.767Z,54.10
2023-01-02T02:59:47.743Z,54.51
2023-01-02T03:00:46.831Z,54.21
2023-01-02T03:01:46.924Z,54.51
2023-01-02T03:02:47.907Z,54.18
2023-01-02T03:03:46.732Z,54.08
2023-01-02T03:04:46.731Z,54.51
2023-01-02T03:05:46.676Z,54.51
2023-01-02T03:06:46.710Z,54.51
2023-01-02T03:07:46.672Z,54.31
2023-01-02T03:08:46.663Z,54.41
2023-01-02T03:09:46.632Z,54.41
2023-01-02T03:10:47.647Z,54.21
2023-01-02T03:11:46.651Z,54.21
2023-01-02T03:12:46.587Z,53.98
2023-01-02T03:13:46.642Z,54.38
2023-01-02T03:14:46.601Z,54.61
2023-01-02T03:15:46.575Z,54.61
2023-01-02T03:16:46.587Z,54.51
2023-01-02T03:17:47.550Z,54.41
2023-01-02T03:18:46.547Z,54.41
2023-01-02T03:19:46.542Z,54.21
2023-01-02T03:20:46.506Z,54.51
2023-01-02T03:21:46.525Z,54.61
2023-01-02T03:22:46.489Z,54.10
2023-01-02T03:23:47.473Z,54.00
2023-01-02T03:24:47.511Z,54.51
2023-01-02T03:25:46.453Z,53.70
2023-01-02T03:26:46.462Z,53.90
2023-01-02T03:27:46.472Z,54.21
2023-01-02T03:28:46.444Z,53.20
2023-01-02T03:29:46.439Z,54.31
2023-01-02T03:30:46.448Z,53.20
2023-01-02T03:31:46.412Z,53.70
2023-01-02T03:32:46.402Z,53.50
2023-01-02T03:33:46.396Z,53.67
2023-01-02T03:34:46.377Z,53.67
2023-01-02T03:35:46.345Z,53.70
2023-01-02T03:36:46.377Z,53.47
2023-01-02T03:37:47.320Z,53.80
2023-01-02T03:38:46.381Z,53.60
2023-01-02T03:39:46.333Z,53.50
2023-01-02T03:40:46.323Z,53.47
2023-01-02T03:41:46.281Z,53.47
2023-01-02T03:42:46.279Z,53.80
2023-01-02T03:43:48.993Z,53.90
2023-01-02T03:44:47.247Z,54.10
2023-01-02T03:45:46.311Z,53.60
2023-01-02T03:46:46.243Z,53.30
2023-01-02T03:47:46.210Z,53.70
2023-01-02T03:48:46.193Z,53.80
2023-01-02T03:49:47.200Z,53.80
2023-01-02T03:50:46.196Z,53.78
2023-01-02T03:51:46.226Z,53.70
2023-01-02T03:52:46.177Z,53.09
2023-01-02T03:53:46.176Z,53.60
2023-01-02T03:54:47.163Z,53.80
2023-01-02T03:55:46.145Z,53.60
2023-01-02T03:56:46.200Z,53.80
2023-01-02T03:57:48.041Z,53.80
2023-01-02T03:58:46.139Z,54.08
2023-01-02T03:59:46.085Z,53.50
2023-01-02T04:00:46.078Z,53.80
2023-01-02T04:01:46.169Z,53.60
2023-01-02T04:02:46.172Z,53.60
2023-01-02T04:03:46.056Z,53.70
2023-01-02T04:04:50.667Z,53.80
2023-01-02T04:05:47.014Z,53.38
2023-01-02T04:06:46.013Z,53.50
2023-01-02T04:07:46.018Z,53.90
2023-01-02T04:08:46.019Z,54.00
2023-01-02T04:09:45.991Z,54.00
2023-01-02T04:10:45.992Z,53.50
2023-01-02T04:11:45.989Z,53.50
2023-01-02T04:12:45.969Z,53.80
2023-01-02T04:13:45.996Z,53.70
2023-01-02T04:14:45.949Z,53.50
2023-01-02T04:15:45.973Z,53.80
2023-01-02T04:16:45.910Z,53.80
2023-01-02T04:17:46.924Z,53.50
2023-01-02T04:18:47.129Z,53.60
2023-01-02T04:19:45.884Z,53.67
2023-01-02T04:20:45.881Z,53.90
2023-01-02T04:21:45.840Z,53.90
2023-01-02T04:22:45.873Z,53.90
2023-01-02T04:23:45.811Z,53.50
2023-01-02T04:24:45.816Z,54.00
2023-01-02T04:25:45.828Z,53.60
2023-01-02T04:26:46.871Z,53.80
2023-01-02T04:27:46.805Z,53.70
2023-01-02T04:28:46.815Z,54.31
2023-01-02T04:29:46.755Z,53.70
2023-01-02T04:30:45.795Z,53.60
2023-01-02T04:31:45.772Z,53.70
2023-01-02T04:32:45.734Z,53.80
2023-01-02T04:33:45.738Z,53.70
2023-01-02T04:34:46.760Z,53.80
2023-01-02T04:35:45.696Z,53.70
2023-01-02T04:36:45.847Z,53.50
2023-01-02T04:37:45.695Z,54.00
2023-01-02T04:38:45.661Z,53.80
2023-01-02T04:39:45.654Z,54.43
2023-01-02T04:40:46.648Z,53.32
2023-01-02T04:41:46.690Z,53.30
2023-01-02T04:42:45.613Z,53.70
2023-01-02T04:43:45.625Z,53.60
2023-01-02T04:44:53.627Z,53.00
2023-01-02T04:45:45.598Z,53.30
2023-01-02T04:46:45.600Z,53.40
2023-01-02T04:47:45.565Z,53.60
2023-01-02T04:48:45.595Z,54.00
2023-01-02T04:49:45.541Z,53.50
2023-01-02T04:50:45.551Z,53.20
2023-01-02T04:51:45.539Z,53.50
2023-01-02T04:52:45.509Z,53.90
2023-01-02T04:53:45.500Z,53.80
2023-01-02T04:54:45.523Z,53.80
2023-01-02T04:55:46.498Z,53.83
2023-01-02T04:56:45.463Z,54.21
2023-01-02T04:57:45.462Z,53.90
2023-01-02T04:58:45.445Z,53.90
2023-01-02T04:59:45.488Z,53.60
2023-01-02T05:00:45.471Z,53.52
2023-01-02T05:01:45.538Z,53.60
2023-01-02T05:02:46.555Z,53.90
2023-01-02T05:03:45.477Z,54.10
2023-01-02T05:04:45.380Z,53.90
2023-01-02T05:05:46.385Z,53.90
2023-01-02T05:06:45.367Z,53.70
2023-01-02T05:07:46.352Z,53.50
2023-01-02T05:08:45.342Z,53.80
2023-01-02T05:09:45.355Z,53.40
2023-01-02T05:10:45.301Z,54.23
2023-01-02T05:11:45.308Z,53.70
2023-01-02T05:12:46.313Z,53.20
2023-01-02T05:13:45.323Z,53.70
2023-01-02T05:14:46.285Z,53.72
2023-01-02T05:15:45.308Z,53.72
2023-01-02T05:16:45.357Z,53.72
2023-01-02T05:17:45.231Z,53.72
2023-01-02T05:18:45.276Z,53.63
2023-01-02T05:19:45.225Z,53.70
2023-01-02T05:20:45.218Z,53.72
2023-01-02T05:21:45.184Z,53.60
2023-01-02T05:22:45.197Z,53.72
2023-01-02T05:23:45.179Z,53.20
2023-01-02T05:24:46.175Z,53.42
2023-01-02T05:25:46.144Z,53.93
2023-01-02T05:26:45.159Z,53.72
2023-01-02T05:27:45.133Z,53.72
2023-01-02T05:28:45.126Z,53.93
2023-01-02T05:29:45.144Z,53.83
2023-01-02T05:30:45.096Z,53.32
2023-01-02T05:31:45.103Z,53.52
2023-01-02T05:32:45.183Z,53.63
2023-01-02T05:33:45.101Z,53.63
2023-01-02T05:34:45.086Z,53.63
2023-01-02T05:35:45.050Z,54.03
2023-01-02T05:36:45.028Z,53.63
2023-01-02T05:37:45.048Z,53.83
2023-01-02T05:38:45.046Z,53.83
2023-01-02T05:39:45.024Z,53.83
2023-01-02T05:40:45.014Z,52.92
2023-01-02T05:41:45.979Z,53.52
2023-01-02T05:42:44.977Z,52.89
2023-01-02T05:43:45.956Z,53.93
2023-01-02T05:44:45.027Z,53.52
2023-01-02T05:45:44.977Z,53.22
2023-01-02T05:46:45.008Z,53.30
2023-01-02T05:47:44.931Z,53.42
2023-01-02T05:48:44.929Z,52.92
2023-01-02T05:49:44.904Z,52.92
2023-01-02T05:50:44.901Z,52.82
2023-01-02T05:51:45.881Z,53.22
2023-01-02T05:52:45.972Z,53.42
2023-01-02T05:53:44.878Z,53.02
2023-01-02T05:54:45.842Z,53.02
2023-01-02T05:55:44.837Z,52.72
2023-01-02T05:56:44.819Z,52.82
2023-01-02T05:57:45.856Z,53.02
2023-01-02T05:58:44.815Z,53.83
2023-01-02T05:59:44.817Z,52.61
2023-01-02T06:00:44.786Z,52.92
2023-01-02T06:01:44.854Z,53.22
2023-01-02T06:02:48.360Z,52.82
2023-01-02T06:03:44.854Z,53.12
2023-01-02T06:04:44.746Z,53.02
2023-01-02T06:05:44.703Z,53.32
2023-01-02T06:06:45.748Z,53.09
2023-01-02T06:07:44.721Z,53.00
2023-01-02T06:08:44.692Z,53.20
2023-01-02T06:09:44.672Z,53.00
2023-01-02T06:10:44.664Z,53.12
2023-01-02T06:11:44.675Z,53.30
2023-01-02T06:12:44.665Z,53.09
2023-01-02T06:13:44.619Z,53.09
2023-01-02T06:14:44.680Z,52.79
2023-01-02T06:15:44.626Z,53.00
2023-01-02T06:16:44.751Z,52.49
2023-01-02T06:17:45.597Z,52.79
2023-01-02T06:18:45.603Z,53.30
2023-01-02T06:19:51.889Z,53.09
2023-01-02T06:20:45.589Z,53.09
2023-01-02T06:21:44.531Z,52.59
2023-01-02T06:22:45.529Z,52.59
2023-01-02T06:23:44.513Z,52.49
2023-01-02T06:24:44.521Z,52.61
2023-01-02T06:25:45.522Z,52.29
2023-01-02T06:26:44.503Z,52.79
2023-01-02T06:27:44.467Z,52.69
2023-01-02T06:28:45.477Z,52.69
2023-01-02T06:29:44.473Z,52.69
2023-01-02T06:30:44.460Z,52.79
2023-01-02T06:31:50.898Z,52.69
2023-01-02T06:32:45.446Z,52.69
2023-01-02T06:33:45.398Z,52.69
2023-01-02T06:34:45.408Z,52.49
2023-01-02T06:35:44.384Z,52.29
2023-01-02T06:36:44.400Z,52.59
2023-01-02T06:37:44.390Z,52.59
2023-01-02T06:38:44.376Z,52.59
2023-01-02T06:39:45.366Z,52.79
2023-01-02T06:40:44.341Z,52.79
2023-01-02T06:41:44.325Z,52.79
2023-01-02T06:42:44.353Z,52.89
2023-01-02T06:43:45.291Z,52.19
2023-01-02T06:44:44.316Z,52.39
2023-01-02T06:45:44.370Z,52.49
2023-01-02T06:46:44.261Z,52.69
2023-01-02T06:47:44.263Z,52.49
2023-01-02T06:48:45.247Z,52.69
2023-01-02T06:49:44.271Z,52.69
2023-01-02T06:50:44.232Z,52.89
2023-01-02T06:51:45.250Z,52.89
2023-01-02T06:52:45.253Z,52.59
2023-01-02T06:53:44.193Z,52.39
2023-01-02T06:54:44.204Z,52.59
2023-01-02T06:55:44.161Z,52.39
2023-01-02T06:56:44.170Z,52.29
2023-01-02T06:57:44.150Z,53.09
2023-01-02T06:58:44.174Z,53.32
2023-01-02T06:59:44.141Z,53.22
2023-01-02T07:00:44.195Z,53.00
2023-01-02T07:01:45.278Z,53.12
2023-01-02T07:02:44.248Z,52.51
2023-01-02T07:03:44.132Z,53.02
2023-01-02T07:04:44.099Z,53.09
2023-01-02T07:05:44.070Z,53.12
2023-01-02T07:06:44.077Z,53.09
2023-01-02T07:07:44.037Z,53.02
2023-01-02T07:08:44.061Z,53.60
2023-01-02T07:09:44.035Z,54.00
2023-01-02T07:10:47.972Z,53.00
2023-01-02T07:11:44.989Z,53.00
2023-01-02T07:12:44.989Z,54.00
2023-01-02T07:13:44.037Z,53.93
2023-01-02T07:14:43.987Z,53.42
2023-01-02T07:15:43.971Z,53.00
2023-01-02T07:16:44.042Z,53.50
2023-01-02T07:17:43.945Z,53.02
2023-01-02T07:18:43.947Z,53.50
2023-01-02T07:19:48.386Z,52.69
2023-01-02T07:20:44.915Z,52.72
2023-01-02T07:21:43.886Z,52.82
2023-01-02T07:22:43.882Z,53.80
2023-01-02T07:23:43.873Z,53.42
2023-01-02T07:24:43.906Z,53.90
2023-01-02T07:25:44.697Z,53.52
2023-01-02T07:26:43.913Z,53.63
2023-01-02T07:27:43.828Z,54.03
2023-01-02T07:28:43.829Z,53.22
2023-01-02T07:29:43.826Z,53.83
2023-01-02T07:30:43.810Z,54.33
2023-01-02T07:31:44.834Z,53.70
2023-01-02T07:32:43.788Z,54.13
2023-01-02T07:33:43.844Z,54.00
2023-01-02T07:34:43.759Z,54.03
2023-01-02T07:35:43.755Z,53.93
2023-01-02T07:36:43.724Z,53.63
2023-01-02T07:37:44.742Z,53.93
2023-01-02T07:38:43.701Z,53.72
2023-01-02T07:39:43.687Z,54.03
2023-01-02T07:40:43.718Z,54.53
2023-01-02T07:41:43.682Z,54.13
2023-01-02T07:42:43.661Z,54.53
2023-01-02T07:43:43.656Z,54.53
2023-01-02T07:44:43.655Z,54.53
2023-01-02T07:45:49.560Z,53.93
2023-01-02T07:46:44.650Z,54.05
2023-01-02T07:47:43.597Z,54.23
2023-01-02T07:48:44.597Z,53.32
2023-01-02T07:49:43.604Z,53.93
2023-01-02T07:50:43.608Z,54.43
2023-01-02T07:51:44.589Z,53.22
2023-01-02T07:52:44.556Z,53.63
2023-01-02T07:53:44.533Z,53.83
2023-01-02T07:54:43.532Z,53.52
2023-01-02T07:55:44.563Z,53.83
2023-01-02T07:56:43.529Z,54.03
2023-01-02T07:57:43.504Z,53.52
2023-01-02T07:58:43.503Z,54.03
2023-01-02T07:59:43.987Z,53.42
2023-01-02T08:00:43.459Z,53.93
2023-01-02T08:01:43.599Z,53.93
2023-01-02T08:02:43.508Z,53.52
2023-01-02T08:03:43.496Z,53.93
2023-01-02T08:04:43.487Z,53.93
2023-01-02T08:05:43.418Z,53.93
2023-01-02T08:06:43.401Z,53.72
2023-01-02T08:07:45.175Z,53.93
2023-01-02T08:08:44.408Z,53.63
2023-01-02T08:09:43.384Z,53.93
2023-01-02T08:10:43.378Z,53.52
2023-01-02T08:11:43.378Z,52.92
2023-01-02T08:12:43.466Z,53.93
2023-01-02T08:13:43.320Z,53.83
2023-01-02T08:14:44.385Z,53.83
2023-01-02T08:15:43.318Z,53.63
2023-01-02T08:16:43.341Z,53.83
2023-01-02T08:17:43.295Z,53.52
2023-01-02T08:18:43.289Z,53.83
2023-01-02T08:19:44.251Z,53.42
2023-01-02T08:20:43.279Z,53.22
2023-01-02T08:21:44.261Z,53.93
2023-01-02T08:22:43.245Z,53.72
2023-01-02T08:23:43.224Z,53.22
2023-01-02T08:24:43.251Z,53.83
2023-01-02T08:25:43.210Z,53.63
2023-01-02T08:26:43.207Z,53.52
2023-01-02T08:27:43.222Z,53.52
2023-01-02T08:28:43.208Z,53.93
2023-01-02T08:29:43.150Z,53.72
2023-01-02T08:30:43.209Z,53.72
2023-01-02T08:31:43.949Z,54.13
2023-01-02T08:32:44.141Z,53.52
2023-01-02T08:33:44.116Z,53.52
2023-01-02T08:34:44.117Z,53.22
2023-01-02T08:35:43.098Z,54.03
2023-01-02T08:36:43.092Z,53.93
2023-01-02T08:37:48.392Z,54.13
2023-01-02T08:38:44.071Z,53.83
2023-01-02T08:39:43.062Z,53.93
2023-01-02T08:40:43.035Z,53.63
2023-01-02T08:41:43.013Z,53.63
2023-01-02T08:42:43.019Z,53.42
2023-01-02T08:43:43.039Z,53.83
2023-01-02T08:44:44.009Z,52.72
2023-01-02T08:45:43.014Z,53.72
2023-01-02T08:46:43.397Z,53.83
2023-01-02T08:47:42.967Z,54.13
2023-01-02T08:48:42.969Z,53.22
2023-01-02T08:49:43.937Z,53.72
2023-01-02T08:50:43.918Z,53.22
2023-01-02T08:51:43.911Z,53.93
2023-01-02T08:52:42.897Z,53.52
2023-01-02T08:53:42.902Z,52.72
2023-01-02T08:54:42.905Z,53.02
2023-01-02T08:55:42.871Z,52.72
2023-01-02T08:56:43.995Z,52.82
2023-01-02T08:57:42.880Z,53.02
2023-01-02T08:58:47.347Z,52.92
2023-01-02T08:59:43.858Z,52.79
2023-01-02T09:00:43.840Z,53.22
2023-01-02T09:01:42.993Z,53.30
2023-01-02T09:02:43.033Z,53.12
2023-01-02T09:03:43.801Z,53.00
2023-01-02T09:04:43.764Z,53.09
2023-01-02T09:05:42.780Z,53.00
2023-01-02T09:06:42.773Z,53.09
2023-01-02T09:07:42.730Z,53.12
2023-01-02T09:08:43.721Z,53.09
2023-01-02T09:09:42.713Z,53.20
2023-01-02T09:10:43.696Z,53.00
2023-01-02T09:11:42.703Z,52.89
2023-01-02T09:12:43.715Z,53.20
2023-01-02T09:13:42.665Z,52.89
2023-01-02T09:14:42.689Z,53.20
2023-01-02T09:15:42.802Z,53.20
2023-01-02T09:16:43.664Z,53.00
2023-01-02T09:17:42.626Z,52.89
2023-01-02T09:18:42.635Z,53.09
2023-01-02T09:19:42.616Z,52.59
2023-01-02T09:20:42.639Z,53.30
2023-01-02T09:21:42.620Z,52.79
2023-01-02T09:22:42.581Z,53.09
2023-01-02T09:23:42.564Z,52.59
2023-01-02T09:24:42.574Z,52.79
2023-01-02T09:25:42.557Z,53.07
2023-01-02T09:26:42.566Z,53.09
2023-01-02T09:27:42.517Z,53.09
2023-01-02T09:28:42.502Z,52.76
2023-01-02T09:29:43.529Z,53.09
2023-01-02T09:30:42.599Z,53.00
2023-01-02T09:31:42.542Z,52.76
2023-01-02T09:32:43.471Z,52.67
2023-01-02T09:33:42.452Z,52.56
2023-01-02T09:34:42.438Z,53.07
2023-01-02T09:35:42.467Z,52.87
2023-01-02T09:36:42.469Z,52.89
2023-01-02T09:37:42.416Z,52.67
2023-01-02T09:38:42.415Z,53.07
2023-01-02T09:39:42.397Z,52.26
2023-01-02T09:40:42.377Z,52.87
2023-01-02T09:41:42.367Z,53.07
2023-01-02T09:42:43.380Z,53.07
2023-01-02T09:43:42.363Z,52.67
2023-01-02T09:44:42.366Z,52.47
2023-01-02T09:45:42.363Z,52.56
2023-01-02T09:46:42.350Z,52.56
2023-01-02T09:47:42.387Z,52.47
2023-01-02T09:48:42.317Z,52.56
2023-01-02T09:49:42.291Z,52.26
2023-01-02T09:50:42.266Z,52.36
2023-01-02T09:51:42.270Z,52.47
2023-01-02T09:52:42.242Z,52.06
2023-01-02T09:53:42.253Z,52.16
2023-01-02T09:54:42.233Z,51.76
2023-01-02T09:55:43.263Z,52.26
2023-01-02T09:56:42.194Z,52.14
2023-01-02T09:57:43.206Z,52.34
2023-01-02T09:58:42.176Z,51.84
2023-01-02T09:59:42.217Z,52.54
2023-01-02T10:00:43.179Z,52.14
2023-01-02T10:01:42.208Z,52.47
2023-01-02T10:02:42.177Z,52.24
2023-01-02T10:03:42.277Z,52.14
2023-01-02T10:04:42.145Z,51.84
2023-01-02T10:05:42.140Z,51.84
2023-01-02T10:06:42.099Z,51.73
2023-01-02T10:07:42.098Z,51.33
2023-01-02T10:08:42.103Z,51.64
2023-01-02T10:09:42.055Z,51.13
2023-01-02T10:10:42.076Z,51.64
2023-01-02T10:11:42.046Z,51.03
2023-01-02T10:12:42.056Z,51.71
2023-01-02T10:14:17.618Z,50.93
2023-01-02T10:14:44.731Z,51.31
2023-01-02T10:15:42.027Z,51.03
2023-01-02T10:16:41.999Z,51.31
2023-01-02T10:17:41.998Z,50.90
2023-01-02T10:18:41.975Z,51.00
2023-01-02T10:19:41.991Z,51.71
2023-01-02T10:20:41.969Z,51.61
2023-01-02T10:21:41.940Z,51.00
2023-01-02T10:22:41.924Z,50.80
2023-01-02T10:23:41.905Z,51.20
2023-01-02T10:24:41.904Z,50.90
2023-01-02T10:25:41.910Z,51.71
2023-01-02T10:26:41.879Z,50.80
2023-01-02T10:27:41.860Z,51.20
2023-01-02T10:28:41.869Z,50.70
2023-01-02T10:29:42.859Z,51.51
2023-01-02T10:30:41.951Z,51.20
2023-01-02T10:31:41.962Z,51.71
2023-01-02T10:32:41.823Z,52.11
2023-01-02T10:33:41.936Z,50.70
2023-01-02T10:34:42.799Z,52.42
2023-01-02T10:35:41.823Z,51.81
2023-01-02T10:36:42.790Z,52.14
2023-01-02T10:37:41.949Z,52.84
2023-01-02T10:38:41.742Z,52.22
2023-01-02T10:39:41.745Z,51.61
2023-01-02T10:40:41.746Z,51.61
2023-01-02T10:41:41.709Z,50.98
2023-01-02T10:42:42.728Z,50.78
2023-01-02T10:43:42.684Z,50.98
2023-01-02T10:44:41.702Z,51.48
2023-01-02T10:45:41.679Z,51.28
2023-01-02T10:46:41.758Z,51.18
2023-01-02T10:47:41.656Z,50.78
2023-01-02T10:48:46.938Z,50.78
2023-01-02T10:49:42.625Z,50.68
2023-01-02T10:50:41.633Z,50.68
2023-01-02T10:51:41.620Z,51.51
2023-01-02T10:52:41.641Z,51.18
2023-01-02T10:53:41.600Z,51.59
2023-01-02T10:54:47.838Z,50.68
2023-01-02T10:55:42.591Z,50.57
2023-01-02T10:56:42.581Z,50.17
2023-01-02T10:57:41.560Z,50.07
2023-01-02T10:58:41.586Z,50.48
2023-01-02T10:59:41.542Z,50.05
2023-01-02T11:00:41.639Z,50.65
2023-01-02T11:01:41.679Z,51.26
2023-01-02T11:02:41.632Z,50.35
2023-01-02T11:03:41.483Z,50.48
2023-01-02T11:04:41.543Z,50.65
2023-01-02T11:05:41.464Z,50.68
2023-01-02T11:06:41.485Z,50.68
2023-01-02T11:07:41.437Z,50.76
2023-01-02T11:08:41.449Z,50.56
2023-01-02T11:09:41.412Z,50.65
2023-01-02T11:10:42.412Z,50.15
2023-01-02T11:11:41.410Z,50.45
2023-01-02T11:12:41.427Z,50.63
2023-01-02T11:13:41.366Z,50.23
2023-01-02T11:14:41.360Z,50.43
2023-01-02T11:15:41.351Z,49.85
2023-01-02T11:16:41.372Z,50.43
2023-01-02T11:17:41.349Z,50.43
2023-01-02T11:18:41.348Z,50.13
2023-01-02T11:19:41.303Z,49.82
2023-01-02T11:20:41.286Z,49.90
2023-01-02T11:21:41.319Z,50.60
2023-01-02T11:22:41.295Z,49.90
2023-01-02T11:23:41.292Z,50.10
2023-01-02T11:24:41.281Z,50.10
2023-01-02T11:25:41.252Z,49.77
2023-01-02T11:26:41.235Z,49.48
2023-01-02T11:27:41.247Z,50.10
2023-01-02T11:28:42.239Z,49.18
2023-01-02T11:29:41.226Z,49.48
2023-01-02T11:30:41.188Z,49.57
2023-01-02T11:31:41.222Z,49.98
2023-01-02T11:32:41.213Z,50.18
2023-01-02T11:33:41.189Z,49.19
2023-01-02T11:34:41.155Z,50.51
2023-01-02T11:35:41.144Z,49.57
2023-01-02T11:36:41.124Z,49.48
2023-01-02T11:37:41.122Z,48.57
2023-01-02T11:38:42.128Z,48.97
2023-01-02T11:39:41.082Z,48.67
2023-01-02T11:40:41.099Z,48.97
2023-01-02T11:41:41.070Z,48.77
2023-01-02T11:42:42.061Z,48.97
2023-01-02T11:43:42.091Z,49.07
2023-01-02T11:44:41.045Z,48.77
2023-01-02T11:45:41.220Z,49.37
2023-01-02T11:46:41.012Z,48.57
2023-01-02T11:47:41.994Z,48.97
2023-01-02T11:48:41.028Z,49.07
2023-01-02T11:49:40.992Z,48.97
2023-01-02T11:50:40.980Z,48.97
2023-01-02T11:51:40.967Z,49.18
2023-01-02T11:52:40.953Z,48.77
2023-01-02T11:53:40.956Z,48.97
2023-01-02T11:54:40.923Z,48.67
2023-01-02T11:55:40.921Z,48.97
2023-01-02T11:56:40.938Z,48.67
2023-01-02T11:57:40.879Z,48.77
2023-01-02T11:58:40.884Z,49.10
2023-01-02T11:59:40.882Z,49.07
2023-01-02T12:00:41.876Z,48.59
2023-01-02T12:01:40.994Z,49.07
2023-01-02T12:02:40.894Z,48.17
2023-01-02T12:03:41.896Z,48.77
2023-01-02T12:04:40.839Z,48.69
2023-01-02T12:05:40.794Z,48.99
2023-01-02T12:06:41.811Z,48.90
2023-01-02T12:07:40.780Z,48.90
2023-01-02T12:08:44.769Z,49.07
2023-01-02T12:09:41.747Z,48.07
2023-01-02T12:10:40.787Z,48.17
2023-01-02T12:11:40.727Z,49.18
2023-01-02T12:12:40.831Z,47.66
2023-01-02T12:13:40.729Z,48.87
2023-01-02T12:14:40.705Z,47.97
2023-01-02T12:15:40.738Z,47.77
2023-01-02T12:16:40.735Z,47.77
2023-01-02T12:17:40.674Z,47.77
2023-01-02T12:18:40.666Z,47.77
2023-01-02T12:19:40.663Z,47.97
2023-01-02T12:20:40.630Z,48.77
2023-01-02T12:21:40.650Z,47.64
2023-01-02T12:22:40.631Z,47.94
2023-01-02T12:23:40.639Z,47.94
2023-01-02T12:24:40.598Z,47.64
2023-01-02T12:25:40.620Z,48.25
2023-01-02T12:26:40.563Z,47.85
2023-01-02T12:27:40.571Z,47.44
2023-01-02T12:28:40.657Z,47.04
2023-01-02T12:29:46.566Z,47.24
2023-01-02T12:30:41.561Z,47.34
2023-01-02T12:31:40.603Z,47.04
2023-01-02T12:32:41.559Z,47.14
2023-01-02T12:33:40.526Z,46.64
2023-01-02T12:34:41.505Z,47.97
2023-01-02T12:35:40.492Z,47.97
2023-01-02T12:36:40.516Z,47.56
2023-01-02T12:37:40.454Z,47.77
2023-01-02T12:38:40.437Z,47.66
2023-01-02T12:39:40.463Z,47.86
2023-01-02T12:40:40.459Z,47.66
2023-01-02T12:42:01.331Z,48.37
2023-01-02T12:42:41.434Z,48.07
2023-01-02T12:43:40.434Z,47.97
2023-01-02T12:44:40.392Z,47.66
2023-01-02T12:45:40.430Z,47.89
2023-01-02T12:46:40.394Z,47.99
2023-01-02T12:47:40.399Z,47.97
2023-01-02T12:48:40.318Z,47.97
2023-01-02T12:49:40.318Z,48.19
2023-01-02T12:50:45.495Z,47.99
2023-01-02T12:51:41.305Z,47.79
2023-01-02T12:52:40.362Z,47.77